sensor_id;sensor_type;location;lat;lon;timestamp;P1;durP1;ratioP1;P2;durP2;ratioP2
63801;SDS011;49949;43.060;25.624;2023-06-14T00:01:24;10.15;;;5.45;;
63801;SDS011;49949;43.060;25.624;2023-06-14T00:03:50;13.10;;;6.10;;
63801;SDS011;49949;43.060;25.624;2023-06-14T00:06:16;10.88;;;5.95;;
63801;SDS011;49949;43.060;25.624;2023-06-14T00:08:42;11.80;;;5.72;;
63801;SDS011;49949;43.060;25.624;2023-06-14T00:11:08;12.07;;;6.03;;
63801;SDS011;49949;43.060;25.624;2023-06-14T00:13:33;9.27;;;5.68;;
63801;SDS011;49949;43.060;25.624;2023-06-14T00:15:59;10.52;;;5.70;;
63801;SDS011;49949;43.060;25.624;2023-06-14T00:18:25;14.80;;;6.10;;
63801;SDS011;49949;43.060;25.624;2023-06-14T00:20:54;19.73;;;5.93;;
63801;SDS011;49949;43.060;25.624;2023-06-14T00:23:20;18.52;;;6.63;;
63801;SDS011;49949;43.060;25.624;2023-06-14T00:25:47;18.80;;;5.97;;
63801;SDS011;49949;43.060;25.624;2023-06-14T00:28:12;12.23;;;6.38;;
63801;SDS011;49949;43.060;25.624;2023-06-14T00:30:39;17.67;;;6.70;;
63801;SDS011;49949;43.060;25.624;2023-06-14T00:33:04;8.73;;;6.03;;
63801;SDS011;49949;43.060;25.624;2023-06-14T00:35:30;9.13;;;5.65;;
63801;SDS011;49949;43.060;25.624;2023-06-14T00:37:56;13.75;;;6.50;;
63801;SDS011;49949;43.060;25.624;2023-06-14T00:40:22;12.50;;;6.10;;
63801;SDS011;49949;43.060;25.624;2023-06-14T00:42:48;13.95;;;6.80;;
63801;SDS011;49949;43.060;25.624;2023-06-14T00:45:14;8.23;;;6.35;;
63801;SDS011;49949;43.060;25.624;2023-06-14T00:47:40;11.18;;;6.53;;
63801;SDS011;49949;43.060;25.624;2023-06-14T00:50:07;9.73;;;7.50;;
63801;SDS011;49949;43.060;25.624;2023-06-14T00:52:35;12.75;;;7.13;;
63801;SDS011;49949;43.060;25.624;2023-06-14T00:55:01;10.30;;;6.72;;
63801;SDS011;49949;43.060;25.624;2023-06-14T00:57:27;9.30;;;7.20;;
63801;SDS011;49949;43.060;25.624;2023-06-14T00:59:54;12.98;;;7.40;;
63801;SDS011;49949;43.060;25.624;2023-06-14T01:02:20;13.68;;;6.45;;
63801;SDS011;49949;43.060;25.624;2023-06-14T01:04:46;8.02;;;6.93;;
63801;SDS011;49949;43.060;25.624;2023-06-14T01:12:31;9.88;;;5.95;;
63801;SDS011;49949;43.060;25.624;2023-06-14T01:15:05;7.00;;;5.07;;
63801;SDS011;49949;43.060;25.624;2023-06-14T01:17:32;6.20;;;5.07;;
63801;SDS011;49949;43.060;25.624;2023-06-14T01:20:01;7.22;;;4.88;;
63801;SDS011;49949;43.060;25.624;2023-06-14T01:22:28;7.65;;;4.72;;
63801;SDS011;49949;43.060;25.624;2023-06-14T01:24:54;7.72;;;5.43;;
63801;SDS011;49949;43.060;25.624;2023-06-14T01:27:23;5.32;;;4.80;;
63801;SDS011;49949;43.060;25.624;2023-06-14T01:29:53;11.23;;;5.93;;
63801;SDS011;49949;43.060;25.624;2023-06-14T01:32:22;11.27;;;6.15;;
63801;SDS011;49949;43.060;25.624;2023-06-14T01:34:49;11.00;;;5.82;;
63801;SDS011;49949;43.060;25.624;2023-06-14T01:37:15;10.32;;;5.90;;
63801;SDS011;49949;43.060;25.624;2023-06-14T01:39:42;14.07;;;5.80;;
63801;SDS011;49949;43.060;25.624;2023-06-14T01:42:10;10.63;;;5.15;;
63801;SDS011;49949;43.060;25.624;2023-06-14T01:44:37;10.13;;;5.80;;
63801;SDS011;49949;43.060;25.624;2023-06-14T01:47:04;9.05;;;5.90;;
63801;SDS011;49949;43.060;25.624;2023-06-14T01:49:33;8.15;;;4.88;;
63801;SDS011;49949;43.060;25.624;2023-06-14T01:52:03;7.80;;;5.10;;
63801;SDS011;49949;43.060;25.624;2023-06-14T01:54:29;12.00;;;5.78;;
63801;SDS011;49949;43.060;25.624;2023-06-14T01:56:55;13.38;;;6.45;;
63801;SDS011;49949;43.060;25.624;2023-06-14T01:59:22;10.85;;;5.97;;
63801;SDS011;49949;43.060;25.624;2023-06-14T02:01:47;9.15;;;5.60;;
63801;SDS011;49949;43.060;25.624;2023-06-14T02:04:13;12.65;;;5.70;;
63801;SDS011;49949;43.060;25.624;2023-06-14T02:06:39;8.25;;;5.82;;
63801;SDS011;49949;43.060;25.624;2023-06-14T02:09:04;8.15;;;5.32;;
63801;SDS011;49949;43.060;25.624;2023-06-14T02:11:30;8.90;;;5.30;;
63801;SDS011;49949;43.060;25.624;2023-06-14T02:13:56;8.35;;;5.65;;
63801;SDS011;49949;43.060;25.624;2023-06-14T02:16:24;7.15;;;5.80;;
63801;SDS011;49949;43.060;25.624;2023-06-14T02:18:53;9.35;;;5.63;;
63801;SDS011;49949;43.060;25.624;2023-06-14T02:21:18;9.27;;;5.72;;
63801;SDS011;49949;43.060;25.624;2023-06-14T02:23:44;7.43;;;5.40;;
63801;SDS011;49949;43.060;25.624;2023-06-14T02:26:10;8.27;;;6.03;;
63801;SDS011;49949;43.060;25.624;2023-06-14T02:28:35;6.25;;;5.28;;
63801;SDS011;49949;43.060;25.624;2023-06-14T02:31:01;9.88;;;5.85;;
63801;SDS011;49949;43.060;25.624;2023-06-14T02:33:27;9.10;;;5.57;;
63801;SDS011;49949;43.060;25.624;2023-06-14T02:35:53;12.02;;;7.35;;
63801;SDS011;49949;43.060;25.624;2023-06-14T02:38:18;10.95;;;6.85;;
63801;SDS011;49949;43.060;25.624;2023-06-14T02:40:44;17.15;;;6.93;;
63801;SDS011;49949;43.060;25.624;2023-06-14T02:43:10;13.43;;;6.55;;
63801;SDS011;49949;43.060;25.624;2023-06-14T02:45:35;16.20;;;6.78;;
63801;SDS011;49949;43.060;25.624;2023-06-14T02:48:01;14.93;;;6.95;;
63801;SDS011;49949;43.060;25.624;2023-06-14T02:50:27;8.77;;;6.07;;
63801;SDS011;49949;43.060;25.624;2023-06-14T02:52:54;11.18;;;6.43;;
63801;SDS011;49949;43.060;25.624;2023-06-14T02:55:22;11.05;;;6.57;;
63801;SDS011;49949;43.060;25.624;2023-06-14T02:57:47;13.25;;;6.85;;
63801;SDS011;49949;43.060;25.624;2023-06-14T03:00:14;14.60;;;7.47;;
63801;SDS011;49949;43.060;25.624;2023-06-14T03:02:40;12.05;;;7.10;;
63801;SDS011;49949;43.060;25.624;2023-06-14T03:05:07;14.98;;;7.40;;
63801;SDS011;49949;43.060;25.624;2023-06-14T03:07:35;12.45;;;6.30;;
63801;SDS011;49949;43.060;25.624;2023-06-14T03:10:06;10.45;;;6.38;;
63801;SDS011;49949;43.060;25.624;2023-06-14T03:12:34;9.65;;;6.97;;
63801;SDS011;49949;43.060;25.624;2023-06-14T03:15:00;10.55;;;7.13;;
63801;SDS011;49949;43.060;25.624;2023-06-14T03:17:26;7.97;;;6.70;;
63801;SDS011;49949;43.060;25.624;2023-06-14T03:19:55;9.82;;;6.93;;
63801;SDS011;49949;43.060;25.624;2023-06-14T03:22:20;8.48;;;6.07;;
63801;SDS011;49949;43.060;25.624;2023-06-14T03:24:47;7.38;;;5.63;;
63801;SDS011;49949;43.060;25.624;2023-06-14T03:27:13;13.50;;;6.32;;
63801;SDS011;49949;43.060;25.624;2023-06-14T03:29:39;11.13;;;6.53;;
63801;SDS011;49949;43.060;25.624;2023-06-14T03:32:05;11.43;;;6.10;;
63801;SDS011;49949;43.060;25.624;2023-06-14T03:34:31;10.85;;;6.60;;
63801;SDS011;49949;43.060;25.624;2023-06-14T03:36:56;10.43;;;7.82;;
63801;SDS011;49949;43.060;25.624;2023-06-14T03:39:22;14.15;;;6.40;;
63801;SDS011;49949;43.060;25.624;2023-06-14T03:41:48;8.35;;;6.20;;
63801;SDS011;49949;43.060;25.624;2023-06-14T03:44:15;8.68;;;6.60;;
63801;SDS011;49949;43.060;25.624;2023-06-14T03:46:42;9.82;;;6.45;;
63801;SDS011;49949;43.060;25.624;2023-06-14T03:49:08;7.75;;;6.30;;
63801;SDS011;49949;43.060;25.624;2023-06-14T03:51:35;9.73;;;5.80;;
63801;SDS011;49949;43.060;25.624;2023-06-14T03:54:01;14.50;;;6.10;;
63801;SDS011;49949;43.060;25.624;2023-06-14T03:56:27;10.70;;;6.38;;
63801;SDS011;49949;43.060;25.624;2023-06-14T03:58:52;12.35;;;6.45;;
63801;SDS011;49949;43.060;25.624;2023-06-14T04:01:18;7.75;;;5.90;;
63801;SDS011;49949;43.060;25.624;2023-06-14T04:03:45;11.25;;;6.88;;
63801;SDS011;49949;43.060;25.624;2023-06-14T04:06:11;9.77;;;6.57;;
63801;SDS011;49949;43.060;25.624;2023-06-14T04:08:36;11.55;;;7.10;;
63801;SDS011;49949;43.060;25.624;2023-06-14T04:11:04;17.80;;;7.07;;
63801;SDS011;49949;43.060;25.624;2023-06-14T04:13:30;9.88;;;6.93;;
63801;SDS011;49949;43.060;25.624;2023-06-14T04:15:56;10.40;;;7.63;;
63801;SDS011;49949;43.060;25.624;2023-06-14T04:18:22;10.55;;;7.45;;
63801;SDS011;49949;43.060;25.624;2023-06-14T04:20:48;25.50;;;8.50;;
63801;SDS011;49949;43.060;25.624;2023-06-14T04:23:18;15.75;;;7.38;;
63801;SDS011;49949;43.060;25.624;2023-06-14T04:25:44;21.83;;;7.85;;
63801;SDS011;49949;43.060;25.624;2023-06-14T04:28:14;12.50;;;7.32;;
63801;SDS011;49949;43.060;25.624;2023-06-14T04:30:43;14.68;;;7.13;;
63801;SDS011;49949;43.060;25.624;2023-06-14T04:33:09;15.32;;;6.97;;
63801;SDS011;49949;43.060;25.624;2023-06-14T04:35:36;9.32;;;7.93;;
63801;SDS011;49949;43.060;25.624;2023-06-14T04:38:02;13.57;;;8.45;;
63801;SDS011;49949;43.060;25.624;2023-06-14T04:40:35;14.05;;;8.55;;
63801;SDS011;49949;43.060;25.624;2023-06-14T04:43:08;19.60;;;8.93;;
63801;SDS011;49949;43.060;25.624;2023-06-14T04:45:37;11.88;;;7.65;;
63801;SDS011;49949;43.060;25.624;2023-06-14T04:48:04;24.30;;;8.80;;
63801;SDS011;49949;43.060;25.624;2023-06-14T04:50:31;25.75;;;8.30;;
63801;SDS011;49949;43.060;25.624;2023-06-14T04:52:58;19.20;;;9.30;;
63801;SDS011;49949;43.060;25.624;2023-06-14T04:55:24;22.38;;;9.57;;
63801;SDS011;49949;43.060;25.624;2023-06-14T04:57:51;21.70;;;10.07;;
63801;SDS011;49949;43.060;25.624;2023-06-14T05:00:18;33.97;;;10.07;;
63801;SDS011;49949;43.060;25.624;2023-06-14T05:02:45;59.50;;;11.80;;
63801;SDS011;49949;43.060;25.624;2023-06-14T05:05:12;26.73;;;10.80;;
63801;SDS011;49949;43.060;25.624;2023-06-14T05:07:38;22.60;;;10.13;;
63801;SDS011;49949;43.060;25.624;2023-06-14T05:10:03;36.33;;;11.48;;
63801;SDS011;49949;43.060;25.624;2023-06-14T05:12:30;34.75;;;10.00;;
63801;SDS011;49949;43.060;25.624;2023-06-14T05:14:56;21.17;;;9.70;;
63801;SDS011;49949;43.060;25.624;2023-06-14T05:17:23;25.02;;;10.70;;
63801;SDS011;49949;43.060;25.624;2023-06-14T05:19:49;29.65;;;9.77;;
63801;SDS011;49949;43.060;25.624;2023-06-14T05:22:15;43.60;;;10.95;;
63801;SDS011;49949;43.060;25.624;2023-06-14T05:24:41;25.65;;;10.73;;
63801;SDS011;49949;43.060;25.624;2023-06-14T05:27:07;39.28;;;11.57;;
63801;SDS011;49949;43.060;25.624;2023-06-14T05:29:33;96.00;;;12.95;;
63801;SDS011;49949;43.060;25.624;2023-06-14T05:31:58;69.32;;;12.15;;
63801;SDS011;49949;43.060;25.624;2023-06-14T05:34:24;28.02;;;11.40;;
63801;SDS011;49949;43.060;25.624;2023-06-14T05:36:50;19.10;;;10.77;;
63801;SDS011;49949;43.060;25.624;2023-06-14T05:39:16;21.92;;;11.20;;
63801;SDS011;49949;43.060;25.624;2023-06-14T05:41:42;24.55;;;11.00;;
63801;SDS011;49949;43.060;25.624;2023-06-14T05:44:08;18.90;;;10.45;;
63801;SDS011;49949;43.060;25.624;2023-06-14T05:46:34;28.67;;;12.57;;
63801;SDS011;49949;43.060;25.624;2023-06-14T05:49:00;21.35;;;11.77;;
63801;SDS011;49949;43.060;25.624;2023-06-14T05:51:25;29.67;;;12.10;;
63801;SDS011;49949;43.060;25.624;2023-06-14T05:53:51;33.83;;;12.52;;
63801;SDS011;49949;43.060;25.624;2023-06-14T05:56:17;18.48;;;11.27;;
63801;SDS011;49949;43.060;25.624;2023-06-14T05:58:44;21.58;;;11.00;;
63801;SDS011;49949;43.060;25.624;2023-06-14T06:01:10;20.52;;;11.65;;
63801;SDS011;49949;43.060;25.624;2023-06-14T06:03:36;25.50;;;11.55;;
63801;SDS011;49949;43.060;25.624;2023-06-14T06:06:02;15.02;;;9.20;;
63801;SDS011;49949;43.060;25.624;2023-06-14T06:08:28;29.67;;;11.13;;
63801;SDS011;49949;43.060;25.624;2023-06-14T06:10:54;16.50;;;10.20;;
63801;SDS011;49949;43.060;25.624;2023-06-14T06:13:20;26.80;;;11.10;;
63801;SDS011;49949;43.060;25.624;2023-06-14T06:15:46;23.33;;;11.52;;
63801;SDS011;49949;43.060;25.624;2023-06-14T06:18:12;16.98;;;11.45;;
63801;SDS011;49949;43.060;25.624;2023-06-14T06:20:37;18.38;;;11.57;;
63801;SDS011;49949;43.060;25.624;2023-06-14T06:23:03;24.08;;;11.15;;
63801;SDS011;49949;43.060;25.624;2023-06-14T06:25:29;19.40;;;11.38;;
63801;SDS011;49949;43.060;25.624;2023-06-14T06:27:57;16.02;;;10.32;;
63801;SDS011;49949;43.060;25.624;2023-06-14T06:30:23;27.17;;;11.60;;
63801;SDS011;49949;43.060;25.624;2023-06-14T06:32:49;47.90;;;11.25;;
63801;SDS011;49949;43.060;25.624;2023-06-14T06:35:16;16.88;;;9.45;;
63801;SDS011;49949;43.060;25.624;2023-06-14T06:37:42;14.85;;;7.97;;
63801;SDS011;49949;43.060;25.624;2023-06-14T06:40:08;14.55;;;10.50;;
63801;SDS011;49949;43.060;25.624;2023-06-14T06:42:35;18.45;;;13.00;;
63801;SDS011;49949;43.060;25.624;2023-06-14T06:45:01;21.33;;;10.57;;
63801;SDS011;49949;43.060;25.624;2023-06-14T06:47:27;17.45;;;10.90;;
63801;SDS011;49949;43.060;25.624;2023-06-14T06:49:52;24.05;;;13.60;;
63801;SDS011;49949;43.060;25.624;2023-06-14T06:52:18;22.55;;;13.07;;
63801;SDS011;49949;43.060;25.624;2023-06-14T06:54:44;18.02;;;10.90;;
63801;SDS011;49949;43.060;25.624;2023-06-14T06:57:10;14.75;;;11.07;;
63801;SDS011;49949;43.060;25.624;2023-06-14T06:59:36;15.05;;;10.00;;
63801;SDS011;49949;43.060;25.624;2023-06-14T07:02:02;32.15;;;10.38;;
63801;SDS011;49949;43.060;25.624;2023-06-14T07:04:28;10.45;;;8.45;;
63801;SDS011;49949;43.060;25.624;2023-06-14T07:06:54;15.13;;;9.05;;
63801;SDS011;49949;43.060;25.624;2023-06-14T07:09:20;13.52;;;8.55;;
63801;SDS011;49949;43.060;25.624;2023-06-14T07:11:46;13.43;;;8.35;;
63801;SDS011;49949;43.060;25.624;2023-06-14T07:14:12;9.48;;;8.07;;
63801;SDS011;49949;43.060;25.624;2023-06-14T07:16:38;10.20;;;7.75;;
63801;SDS011;49949;43.060;25.624;2023-06-14T07:19:04;12.13;;;7.90;;
63801;SDS011;49949;43.060;25.624;2023-06-14T07:21:30;14.25;;;9.52;;
63801;SDS011;49949;43.060;25.624;2023-06-14T07:23:56;15.65;;;10.05;;
63801;SDS011;49949;43.060;25.624;2023-06-14T07:26:22;11.98;;;8.02;;
63801;SDS011;49949;43.060;25.624;2023-06-14T07:28:48;10.10;;;7.40;;
63801;SDS011;49949;43.060;25.624;2023-06-14T07:31:14;11.63;;;7.55;;
63801;SDS011;49949;43.060;25.624;2023-06-14T07:33:41;14.77;;;7.57;;
63801;SDS011;49949;43.060;25.624;2023-06-14T07:36:07;9.63;;;7.35;;
63801;SDS011;49949;43.060;25.624;2023-06-14T07:38:33;12.63;;;8.32;;
63801;SDS011;49949;43.060;25.624;2023-06-14T07:40:59;13.95;;;10.40;;
63801;SDS011;49949;43.060;25.624;2023-06-14T07:43:25;21.17;;;11.55;;
63801;SDS011;49949;43.060;25.624;2023-06-14T07:45:51;17.92;;;12.73;;
63801;SDS011;49949;43.060;25.624;2023-06-14T07:48:17;20.05;;;11.75;;
63801;SDS011;49949;43.060;25.624;2023-06-14T07:50:43;19.83;;;9.57;;
63801;SDS011;49949;43.060;25.624;2023-06-14T07:53:11;70.53;;;12.82;;
63801;SDS011;49949;43.060;25.624;2023-06-14T07:55:37;31.85;;;10.82;;
63801;SDS011;49949;43.060;25.624;2023-06-14T07:58:05;14.27;;;11.07;;
63801;SDS011;49949;43.060;25.624;2023-06-14T08:00:34;20.60;;;10.68;;
63801;SDS011;49949;43.060;25.624;2023-06-14T08:02:59;16.20;;;11.85;;
63801;SDS011;49949;43.060;25.624;2023-06-14T08:05:25;17.45;;;11.60;;
63801;SDS011;49949;43.060;25.624;2023-06-14T08:07:52;16.70;;;11.68;;
63801;SDS011;49949;43.060;25.624;2023-06-14T08:10:17;14.70;;;10.82;;
63801;SDS011;49949;43.060;25.624;2023-06-14T08:12:43;26.45;;;10.73;;
63801;SDS011;49949;43.060;25.624;2023-06-14T08:15:09;15.63;;;8.98;;
63801;SDS011;49949;43.060;25.624;2023-06-14T08:17:35;20.10;;;9.73;;
63801;SDS011;49949;43.060;25.624;2023-06-14T08:20:01;40.67;;;10.80;;
63801;SDS011;49949;43.060;25.624;2023-06-14T08:22:29;20.33;;;9.43;;
63801;SDS011;49949;43.060;25.624;2023-06-14T08:24:57;15.90;;;9.40;;
63801;SDS011;49949;43.060;25.624;2023-06-14T08:27:23;23.92;;;9.50;;
63801;SDS011;49949;43.060;25.624;2023-06-14T08:29:49;21.58;;;10.35;;
63801;SDS011;49949;43.060;25.624;2023-06-14T08:32:15;23.05;;;12.15;;
63801;SDS011;49949;43.060;25.624;2023-06-14T08:34:40;17.73;;;11.20;;
63801;SDS011;49949;43.060;25.624;2023-06-14T08:37:06;19.67;;;11.13;;
63801;SDS011;49949;43.060;25.624;2023-06-14T08:39:32;26.02;;;8.30;;
63801;SDS011;49949;43.060;25.624;2023-06-14T08:41:58;13.95;;;8.68;;
63801;SDS011;49949;43.060;25.624;2023-06-14T08:44:27;19.88;;;8.73;;
63801;SDS011;49949;43.060;25.624;2023-06-14T08:46:54;13.98;;;7.80;;
63801;SDS011;49949;43.060;25.624;2023-06-14T08:49:22;419.13;;;26.25;;
63801;SDS011;49949;43.060;25.624;2023-06-14T08:51:50;18.60;;;8.80;;
63801;SDS011;49949;43.060;25.624;2023-06-14T08:54:23;8.13;;;5.78;;
63801;SDS011;49949;43.060;25.624;2023-06-14T08:56:52;35.67;;;6.95;;
63801;SDS011;49949;43.060;25.624;2023-06-14T08:59:23;11.48;;;5.78;;
63801;SDS011;49949;43.060;25.624;2023-06-14T09:01:52;8.25;;;5.63;;
63801;SDS011;49949;43.060;25.624;2023-06-14T09:04:20;8.27;;;5.18;;
63801;SDS011;49949;43.060;25.624;2023-06-14T09:06:47;85.95;;;10.90;;
63801;SDS011;49949;43.060;25.624;2023-06-14T09:09:18;9.70;;;5.50;;
63801;SDS011;49949;43.060;25.624;2023-06-14T09:11:45;10.35;;;5.10;;
63801;SDS011;49949;43.060;25.624;2023-06-14T09:14:11;13.32;;;5.15;;
63801;SDS011;49949;43.060;25.624;2023-06-14T09:16:37;8.38;;;4.90;;
63801;SDS011;49949;43.060;25.624;2023-06-14T09:19:02;5.57;;;4.95;;
63801;SDS011;49949;43.060;25.624;2023-06-14T09:21:28;16.58;;;4.85;;
63801;SDS011;49949;43.060;25.624;2023-06-14T09:23:59;5.57;;;4.45;;
63801;SDS011;49949;43.060;25.624;2023-06-14T09:26:25;11.50;;;5.50;;
63801;SDS011;49949;43.060;25.624;2023-06-14T09:28:52;4.93;;;4.38;;
63801;SDS011;49949;43.060;25.624;2023-06-14T09:31:20;6.53;;;4.65;;
63801;SDS011;49949;43.060;25.624;2023-06-14T09:33:47;6.50;;;5.00;;
63801;SDS011;49949;43.060;25.624;2023-06-14T09:36:15;7.25;;;4.78;;
63801;SDS011;49949;43.060;25.624;2023-06-14T09:38:44;10.10;;;4.22;;
63801;SDS011;49949;43.060;25.624;2023-06-14T09:41:36;5.00;;;4.00;;
63801;SDS011;49949;43.060;25.624;2023-06-14T09:44:06;9.52;;;4.25;;
63801;SDS011;49949;43.060;25.624;2023-06-14T09:46:34;9.48;;;3.90;;
63801;SDS011;49949;43.060;25.624;2023-06-14T09:49:01;3.25;;;2.95;;
63801;SDS011;49949;43.060;25.624;2023-06-14T09:51:28;6.30;;;3.38;;
63801;SDS011;49949;43.060;25.624;2023-06-14T09:54:03;6.47;;;3.05;;
63801;SDS011;49949;43.060;25.624;2023-06-14T09:59:04;5.93;;;3.22;;
63801;SDS011;49949;43.060;25.624;2023-06-14T10:01:31;3.28;;;2.97;;
63801;SDS011;49949;43.060;25.624;2023-06-14T10:04:01;7.47;;;3.60;;
63801;SDS011;49949;43.060;25.624;2023-06-14T10:06:30;7.47;;;3.20;;
63801;SDS011;49949;43.060;25.624;2023-06-14T10:08:57;8.25;;;3.80;;
63801;SDS011;49949;43.060;25.624;2023-06-14T10:11:27;8.13;;;3.58;;
63801;SDS011;49949;43.060;25.624;2023-06-14T10:13:54;5.05;;;3.60;;
63801;SDS011;49949;43.060;25.624;2023-06-14T10:16:23;4.68;;;3.50;;
63801;SDS011;49949;43.060;25.624;2023-06-14T10:19:07;7.43;;;3.75;;
63801;SDS011;49949;43.060;25.624;2023-06-14T10:22:09;15.63;;;4.00;;
63801;SDS011;49949;43.060;25.624;2023-06-14T10:24:42;11.73;;;4.40;;
63801;SDS011;49949;43.060;25.624;2023-06-14T10:27:09;6.43;;;3.72;;
63801;SDS011;49949;43.060;25.624;2023-06-14T10:32:18;5.35;;;3.63;;
63801;SDS011;49949;43.060;25.624;2023-06-14T10:34:45;4.18;;;3.35;;
63801;SDS011;49949;43.060;25.624;2023-06-14T10:37:18;4.35;;;3.38;;
63801;SDS011;49949;43.060;25.624;2023-06-14T10:39:44;4.50;;;3.15;;
63801;SDS011;49949;43.060;25.624;2023-06-14T10:42:14;3.58;;;3.05;;
63801;SDS011;49949;43.060;25.624;2023-06-14T10:44:41;6.70;;;3.30;;
63801;SDS011;49949;43.060;25.624;2023-06-14T10:47:50;26.30;;;4.63;;
63801;SDS011;49949;43.060;25.624;2023-06-14T10:50:06;4.32;;;3.50;;
63801;SDS011;49949;43.060;25.624;2023-06-14T10:52:39;8.05;;;3.42;;
63801;SDS011;49949;43.060;25.624;2023-06-14T10:55:07;8.82;;;3.47;;
63801;SDS011;49949;43.060;25.624;2023-06-14T10:57:36;7.20;;;3.20;;
63801;SDS011;49949;43.060;25.624;2023-06-14T11:00:04;3.88;;;3.00;;
63801;SDS011;49949;43.060;25.624;2023-06-14T11:05:25;4.82;;;3.10;;
63801;SDS011;49949;43.060;25.624;2023-06-14T11:10:41;3.42;;;2.95;;
63801;SDS011;49949;43.060;25.624;2023-06-14T11:13:08;5.28;;;3.03;;
63801;SDS011;49949;43.060;25.624;2023-06-14T11:15:37;3.22;;;2.55;;
63801;SDS011;49949;43.060;25.624;2023-06-14T11:18:08;13.93;;;3.38;;
63801;SDS011;49949;43.060;25.624;2023-06-14T11:20:35;3.13;;;2.83;;
63801;SDS011;49949;43.060;25.624;2023-06-14T11:23:01;14.65;;;4.13;;
63801;SDS011;49949;43.060;25.624;2023-06-14T11:25:28;5.57;;;2.35;;
63801;SDS011;49949;43.060;25.624;2023-06-14T11:27:54;3.03;;;2.35;;
63801;SDS011;49949;43.060;25.624;2023-06-14T11:30:20;4.63;;;2.13;;
63801;SDS011;49949;43.060;25.624;2023-06-14T11:32:49;2.92;;;2.22;;
63801;SDS011;49949;43.060;25.624;2023-06-14T11:35:17;6.75;;;2.30;;
63801;SDS011;49949;43.060;25.624;2023-06-14T11:37:43;2.50;;;2.30;;
63801;SDS011;49949;43.060;25.624;2023-06-14T11:40:09;19.13;;;3.03;;
63801;SDS011;49949;43.060;25.624;2023-06-14T11:42:37;5.25;;;2.40;;
63801;SDS011;49949;43.060;25.624;2023-06-14T11:45:03;4.05;;;2.45;;
63801;SDS011;49949;43.060;25.624;2023-06-14T11:47:32;2.47;;;2.28;;
63801;SDS011;49949;43.060;25.624;2023-06-14T11:50:02;10.68;;;3.38;;
63801;SDS011;49949;43.060;25.624;2023-06-14T11:52:28;7.82;;;2.90;;
63801;SDS011;49949;43.060;25.624;2023-06-14T11:54:55;5.05;;;2.30;;
63801;SDS011;49949;43.060;25.624;2023-06-14T11:57:22;7.45;;;2.30;;
63801;SDS011;49949;43.060;25.624;2023-06-14T11:59:48;7.15;;;3.00;;
63801;SDS011;49949;43.060;25.624;2023-06-14T12:02:14;2.78;;;2.58;;
63801;SDS011;49949;43.060;25.624;2023-06-14T12:04:41;3.22;;;2.88;;
63801;SDS011;49949;43.060;25.624;2023-06-14T12:07:08;4.13;;;2.38;;
63801;SDS011;49949;43.060;25.624;2023-06-14T12:09:37;4.78;;;2.65;;
63801;SDS011;49949;43.060;25.624;2023-06-14T12:12:02;4.97;;;2.30;;
63801;SDS011;49949;43.060;25.624;2023-06-14T12:14:31;3.15;;;2.42;;
63801;SDS011;49949;43.060;25.624;2023-06-14T12:17:03;3.13;;;2.38;;
63801;SDS011;49949;43.060;25.624;2023-06-14T12:19:33;2.95;;;2.45;;
63801;SDS011;49949;43.060;25.624;2023-06-14T12:22:09;3.90;;;2.05;;
63801;SDS011;49949;43.060;25.624;2023-06-14T12:24:35;2.20;;;2.00;;
63801;SDS011;49949;43.060;25.624;2023-06-14T12:27:01;4.88;;;2.47;;
63801;SDS011;49949;43.060;25.624;2023-06-14T12:29:28;10.15;;;3.40;;
63801;SDS011;49949;43.060;25.624;2023-06-14T12:31:54;3.67;;;2.38;;
63801;SDS011;49949;43.060;25.624;2023-06-14T12:34:22;2.20;;;2.03;;
63801;SDS011;49949;43.060;25.624;2023-06-14T12:36:50;2.47;;;2.28;;
63801;SDS011;49949;43.060;25.624;2023-06-14T12:39:16;3.38;;;2.00;;
63801;SDS011;49949;43.060;25.624;2023-06-14T12:41:42;7.22;;;2.90;;
63801;SDS011;49949;43.060;25.624;2023-06-14T12:44:08;6.38;;;2.33;;
63801;SDS011;49949;43.060;25.624;2023-06-14T12:46:33;51.00;;;4.25;;
63801;SDS011;49949;43.060;25.624;2023-06-14T12:49:00;3.25;;;2.30;;
63801;SDS011;49949;43.060;25.624;2023-06-14T12:51:26;4.93;;;3.15;;
63801;SDS011;49949;43.060;25.624;2023-06-14T12:53:51;3.22;;;2.22;;
63801;SDS011;49949;43.060;25.624;2023-06-14T12:56:17;3.22;;;2.40;;
63801;SDS011;49949;43.060;25.624;2023-06-14T12:58:43;2.40;;;2.20;;
63801;SDS011;49949;43.060;25.624;2023-06-14T13:01:09;2.13;;;1.92;;
63801;SDS011;49949;43.060;25.624;2023-06-14T13:03:34;3.53;;;1.90;;
63801;SDS011;49949;43.060;25.624;2023-06-14T13:06:01;3.08;;;1.55;;
63801;SDS011;49949;43.060;25.624;2023-06-14T13:08:27;5.70;;;2.60;;
63801;SDS011;49949;43.060;25.624;2023-06-14T13:10:53;2.97;;;2.10;;
63801;SDS011;49949;43.060;25.624;2023-06-14T13:13:22;3.15;;;1.80;;
63801;SDS011;49949;43.060;25.624;2023-06-14T13:15:49;15.60;;;2.47;;
63801;SDS011;49949;43.060;25.624;2023-06-14T13:18:15;8.73;;;1.77;;
63801;SDS011;49949;43.060;25.624;2023-06-14T13:20:41;3.28;;;1.98;;
63801;SDS011;49949;43.060;25.624;2023-06-14T13:23:08;2.28;;;1.92;;
63801;SDS011;49949;43.060;25.624;2023-06-14T13:25:34;3.88;;;1.70;;
63801;SDS011;49949;43.060;25.624;2023-06-14T13:28:00;3.03;;;1.92;;
63801;SDS011;49949;43.060;25.624;2023-06-14T13:30:26;7.15;;;2.42;;
63801;SDS011;49949;43.060;25.624;2023-06-14T13:32:52;43.03;;;3.28;;
63801;SDS011;49949;43.060;25.624;2023-06-14T13:35:18;4.20;;;2.30;;
63801;SDS011;49949;43.060;25.624;2023-06-14T13:37:44;4.47;;;2.80;;
63801;SDS011;49949;43.060;25.624;2023-06-14T13:40:10;3.25;;;2.00;;
63801;SDS011;49949;43.060;25.624;2023-06-14T13:42:37;4.22;;;2.00;;
63801;SDS011;49949;43.060;25.624;2023-06-14T13:45:03;3.22;;;2.13;;
63801;SDS011;49949;43.060;25.624;2023-06-14T13:47:30;3.20;;;2.13;;
63801;SDS011;49949;43.060;25.624;2023-06-14T13:49:57;6.10;;;2.17;;
63801;SDS011;49949;43.060;25.624;2023-06-14T13:52:23;2.63;;;2.00;;
63801;SDS011;49949;43.060;25.624;2023-06-14T13:54:49;4.47;;;2.30;;
63801;SDS011;49949;43.060;25.624;2023-06-14T13:57:15;3.63;;;1.92;;
63801;SDS011;49949;43.060;25.624;2023-06-14T13:59:41;2.78;;;1.90;;
63801;SDS011;49949;43.060;25.624;2023-06-14T14:02:09;3.42;;;1.95;;
63801;SDS011;49949;43.060;25.624;2023-06-14T14:04:35;9.82;;;1.73;;
63801;SDS011;49949;43.060;25.624;2023-06-14T14:07:01;3.42;;;2.00;;
63801;SDS011;49949;43.060;25.624;2023-06-14T14:09:28;1.98;;;1.83;;
63801;SDS011;49949;43.060;25.624;2023-06-14T14:11:54;19.05;;;2.85;;
63801;SDS011;49949;43.060;25.624;2023-06-14T14:14:20;4.05;;;1.75;;
63801;SDS011;49949;43.060;25.624;2023-06-14T14:16:47;2.00;;;1.90;;
63801;SDS011;49949;43.060;25.624;2023-06-14T14:19:13;2.15;;;1.95;;
63801;SDS011;49949;43.060;25.624;2023-06-14T14:21:39;4.03;;;2.20;;
63801;SDS011;49949;43.060;25.624;2023-06-14T14:24:05;4.88;;;2.10;;
63801;SDS011;49949;43.060;25.624;2023-06-14T14:26:31;3.33;;;1.90;;
63801;SDS011;49949;43.060;25.624;2023-06-14T14:28:56;5.10;;;1.73;;
63801;SDS011;49949;43.060;25.624;2023-06-14T14:31:22;2.33;;;2.13;;
63801;SDS011;49949;43.060;25.624;2023-06-14T14:33:48;2.85;;;2.25;;
63801;SDS011;49949;43.060;25.624;2023-06-14T14:36:13;4.40;;;2.30;;
63801;SDS011;49949;43.060;25.624;2023-06-14T14:38:39;2.92;;;2.00;;
63801;SDS011;49949;43.060;25.624;2023-06-14T14:41:05;4.15;;;2.00;;